Time;durP1;ratioP1;P1;durP2;ratioP2;P2;SDS_P1;SDS_P2;PMS_P1;PMS_P2;Temp;Humidity;BMP_temperature;BMP_pressure;BME280_temperature;BME280_humidity;BME280_pressure;Samples;Min_cycle;Max_cycle;Signal;HPM_P1;HPM_P2
2022/03/22 00:00:24;;;;;;;32.80;26.63;;;10.00;99.90;;;;;;5012408;28;20465;-68
2022/03/22 00:02:51;;;;;;;32.03;24.80;;;10.00;99.90;;;;;;5033490;28;20460;-66
2022/03/22 00:05:20;;;;;;;38.80;27.00;;;10.00;99.90;;;;;;5039364;28;20467;-67
2022/03/22 00:07:47;;;;;;;32.83;25.80;;;10.00;99.90;;;;;;5041436;28;20456;-67
2022/03/22 00:10:14;;;;;;;29.90;26.70;;;10.00;99.90;;;;;;5040540;28;20488;-68
2022/03/22 00:12:42;;;;;;;36.30;26.17;;;10.00;99.90;;;;;;5037727;28;20464;-67
2022/03/22 00:15:11;;;;;;;29.43;26.30;;;9.90;99.90;;;;;;5037333;28;20472;-67
2022/03/22 00:17:41;;;;;;;29.00;25.90;;;9.90;99.90;;;;;;5031670;28;20555;-76
2022/03/22 00:20:10;;;;;;;29.60;26.00;;;9.90;99.90;;;;;;5029718;28;20921;-68
2022/03/22 00:22:38;;;;;;;28.20;25.30;;;9.80;99.90;;;;;;5033828;28;20579;-67
2022/03/22 00:25:07;;;;;;;41.13;27.77;;;9.80;99.90;;;;;;5038434;28;20461;-67
2022/03/22 00:27:50;;;;;;;35.57;27.77;;;9.90;99.90;;;;;;5039119;28;20460;-67
2022/03/22 00:30:17;;;;;;;35.27;28.03;;;9.80;99.90;;;;;;5038602;28;20505;-67
2022/03/22 00:32:44;;;;;;;30.33;26.33;;;9.80;99.90;;;;;;5034096;28;20491;-68
2022/03/22 00:35:11;;;;;;;30.80;27.47;;;9.80;99.90;;;;;;5035599;28;20484;-67
2022/03/22 00:37:41;;;;;;;35.17;28.30;;;9.80;99.90;;;;;;5568273;22;20729;-69
2022/03/22 00:40:11;;;;;;;32.33;27.40;;;9.80;99.90;;;;;;5041342;28;20522;-67
2022/03/22 00:42:38;;;;;;;30.73;27.50;;;9.70;99.90;;;;;;5037845;28;20463;-67
2022/03/22 00:45:06;;;;;;;31.60;25.93;;;9.70;99.90;;;;;;5039421;28;20479;-67
2022/03/22 00:47:33;;;;;;;33.23;29.33;;;9.60;99.90;;;;;;5040870;28;20564;-68
2022/03/22 00:50:00;;;;;;;30.83;27.60;;;9.60;99.90;;;;;;5041690;28;20495;-67
2022/03/22 00:52:27;;;;;;;31.83;28.57;;;9.60;99.90;;;;;;5038003;28;20460;-68
2022/03/22 00:54:55;;;;;;;34.57;28.93;;;9.50;99.90;;;;;;5039416;28;21260;-67
2022/03/22 00:57:22;;;;;;;36.30;27.33;;;9.50;99.90;;;;;;5038866;28;20573;-69
2022/03/22 01:00:05;;;;;;;36.87;28.43;;;9.60;99.90;;;;;;5036371;28;20460;-67
2022/03/22 01:02:35;;;;;;;30.23;27.03;;;9.50;99.90;;;;;;5036878;28;20470;-67
2022/03/22 01:05:03;;;;;;;31.63;27.77;;;9.60;99.90;;;;;;5041076;28;20463;-67
2022/03/22 01:07:30;;;;;;;37.90;28.13;;;9.60;99.90;;;;;;5040482;28;20773;-68
2022/03/22 01:09:58;;;;;;;30.47;27.20;;;9.60;99.90;;;;;;5044198;28;21171;-68
2022/03/22 01:12:25;;;;;;;32.70;27.40;;;9.50;99.90;;;;;;5031983;28;20526;-69
2022/03/22 01:14:52;;;;;;;30.97;27.20;;;9.50;99.90;;;;;;5037338;28;20478;-67
2022/03/22 01:17:20;;;;;;;31.30;27.90;;;9.50;99.90;;;;;;5038139;28;20475;-67
2022/03/22 01:19:47;;;;;;;31.23;27.93;;;9.50;99.90;;;;;;5040013;28;20471;-67
2022/03/22 01:22:16;;;;;;;32.97;29.40;;;9.50;99.90;;;;;;5045457;28;20514;-67
2022/03/22 01:24:43;;;;;;;35.17;27.90;;;9.50;99.90;;;;;;5039707;28;20505;-67
2022/03/22 01:27:12;;;;;;;40.20;28.93;;;9.50;99.90;;;;;;5036634;28;20475;-67
2022/03/22 01:29:39;;;;;;;33.73;28.37;;;9.50;99.90;;;;;;5035078;28;20684;-69
2022/03/22 01:32:07;;;;;;;35.83;28.53;;;9.50;99.90;;;;;;5036160;28;20475;-68
2022/03/22 01:34:34;;;;;;;31.73;27.30;;;9.50;99.90;;;;;;5050693;28;20484;-69
2022/03/22 01:37:01;;;;;;;36.10;29.43;;;9.50;99.90;;;;;;5055040;28;20500;-67
2022/03/22 01:39:28;;;;;;;33.27;29.63;;;9.50;99.90;;;;;;5057661;28;20570;-67
2022/03/22 01:41:55;;;;;;;31.83;27.20;;;9.40;99.90;;;;;;5562718;22;20569;-70
2022/03/22 01:44:23;;;;;;;37.50;28.83;;;9.40;99.90;;;;;;5044170;28;20494;-68
2022/03/22 01:46:52;;;;;;;31.97;27.90;;;9.40;99.90;;;;;;5044082;28;20464;-67
2022/03/22 01:49:19;;;;;;;39.13;28.77;;;9.40;99.90;;;;;;5048048;28;20493;-69
2022/03/22 01:51:48;;;;;;;31.57;28.07;;;9.30;99.90;;;;;;5037840;28;20568;-69
2022/03/22 01:54:18;;;;;;;32.67;29.13;;;9.20;99.90;;;;;;5040203;28;20463;-67
2022/03/22 01:56:45;;;;;;;36.83;28.27;;;9.20;99.90;;;;;;5044006;28;20474;-68
2022/03/22 01:59:13;;;;;;;34.93;29.60;;;9.10;99.90;;;;;;5046909;28;20474;-67
2022/03/22 02:07:12;;;;;;;50.60;29.60;;;8.90;99.90;;;;;;5039411;28;20508;-69
2022/03/22 02:09:39;;;;;;;41.37;30.00;;;8.90;99.90;;;;;;5042938;28;20491;-68
2022/03/22 02:12:07;;;;;;;34.03;29.00;;;8.80;99.90;;;;;;5043010;28;20466;-69
2022/03/22 02:14:34;;;;;;;37.77;29.73;;;8.70;99.90;;;;;;5040831;28;20462;-67
2022/03/22 02:17:09;;;;;;;53.10;33.50;;;8.70;99.90;;;;;;5046440;28;20510;-67
2022/03/22 02:19:38;;;;;;;35.27;30.87;;;8.70;99.90;;;;;;5044375;28;21120;-68
2022/03/22 02:22:11;;;;;;;36.03;30.13;;;8.60;99.90;;;;;;5043284;28;20459;-67
2022/03/22 02:24:40;;;;;;;35.73;29.13;;;8.60;99.90;;;;;;5040983;28;20463;-68
2022/03/22 02:27:07;;;;;;;40.33;30.53;;;8.50;99.90;;;;;;5043915;28;20511;-68
2022/03/22 02:29:35;;;;;;;45.20;32.47;;;8.50;99.90;;;;;;5045204;28;20541;-69
2022/03/22 02:32:02;;;;;;;42.23;31.47;;;8.50;99.90;;;;;;5038136;28;20476;-68
2022/03/22 02:34:28;;;;;;;35.70;31.17;;;8.40;99.90;;;;;;5042055;28;20487;-69
2022/03/22 02:36:55;;;;;;;48.13;33.10;;;8.40;99.90;;;;;;5040519;28;20466;-67
2022/03/22 02:41:59;;;;;;;38.80;31.60;;;8.40;99.90;;;;;;5105632;23;20493;-71
2022/03/22 02:44:26;;;;;;;39.83;30.93;;;8.40;99.90;;;;;;4979171;28;20477;-71
2022/03/22 02:46:53;;;;;;;41.37;31.50;;;8.30;99.90;;;;;;4982113;28;20473;-69
2022/03/22 02:49:21;;;;;;;39.63;31.53;;;8.30;99.90;;;;;;4981260;28;20588;-69
2022/03/22 02:51:48;;;;;;;33.80;30.20;;;8.30;99.90;;;;;;4980240;28;20470;-68
2022/03/22 02:54:15;;;;;;;38.53;31.80;;;8.30;99.90;;;;;;4976123;28;21124;-69
2022/03/22 02:56:41;;;;;;;41.50;31.90;;;8.20;99.90;;;;;;4980456;28;20471;-69
2022/03/22 02:59:09;;;;;;;34.87;29.93;;;8.20;99.90;;;;;;4984190;28;21281;-69
2022/03/22 03:01:36;;;;;;;34.77;30.97;;;8.20;99.90;;;;;;4981074;28;20466;-71
2022/03/22 03:04:04;;;;;;;36.47;32.00;;;8.10;99.90;;;;;;4981255;28;20456;-70
2022/03/22 03:06:30;;;;;;;36.30;30.00;;;8.10;99.90;;;;;;4981913;28;20469;-70
2022/03/22 03:08:59;;;;;;;36.27;31.53;;;8.00;99.90;;;;;;4982960;28;20836;-70
2022/03/22 03:11:26;;;;;;;36.60;31.83;;;8.00;99.90;;;;;;4979772;28;20494;-70
2022/03/22 03:16:39;;;;;;;36.43;32.50;;;8.00;99.90;;;;;;4982768;28;20502;-70
2022/03/22 03:19:06;;;;;;;38.33;32.43;;;7.90;99.90;;;;;;4979919;28;20462;-70
2022/03/22 03:21:34;;;;;;;40.07;31.60;;;7.90;99.90;;;;;;4987871;28;20471;-69
2022/03/22 03:24:01;;;;;;;45.00;32.27;;;7.80;99.90;;;;;;4979771;28;20473;-69
2022/03/22 03:26:28;;;;;;;34.73;31.23;;;7.80;99.90;;;;;;4985489;28;20472;-69
2022/03/22 03:28:54;;;;;;;40.30;32.00;;;7.80;99.90;;;;;;4984463;28;20881;-69
2022/03/22 03:31:21;;;;;;;40.90;32.73;;;7.70;99.90;;;;;;4981485;28;20489;-69
2022/03/22 03:33:50;;;;;;;39.37;31.77;;;7.70;99.90;;;;;;4985128;28;21013;-69
2022/03/22 03:36:17;;;;;;;34.00;29.47;;;7.70;99.90;;;;;;4981858;28;20480;-69
2022/03/22 03:38:44;;;;;;;38.47;32.00;;;7.70;99.90;;;;;;4984050;28;20810;-69
2022/03/22 03:43:57;;;;;;;42.03;31.03;;;7.60;99.90;;;;;;4979437;28;20468;-69
2022/03/22 03:49:10;;;;;;;40.87;31.90;;;7.70;99.90;;;;;;4981465;28;20461;-71
2022/03/22 03:51:38;;;;;;;36.03;32.30;;;7.60;99.90;;;;;;4982741;28;20581;-71
2022/03/22 03:54:05;;;;;;;36.60;31.50;;;7.50;99.90;;;;;;4980003;28;20467;-71
2022/03/22 03:56:32;;;;;;;34.07;30.37;;;7.40;99.90;;;;;;4978019;28;20807;-69
2022/03/22 03:58:58;;;;;;;38.00;31.43;;;7.40;99.90;;;;;;4982909;28;20470;-69
2022/03/22 04:01:26;;;;;;;38.93;31.87;;;7.40;99.90;;;;;;4985751;28;20975;-69
2022/03/22 04:03:53;;;;;;;46.00;31.83;;;7.40;99.90;;;;;;4984848;28;20471;-69
2022/03/22 04:06:21;;;;;;;36.80;30.90;;;7.40;99.90;;;;;;4983442;28;20868;-69
2022/03/22 04:08:48;;;;;;;38.97;32.87;;;7.30;99.90;;;;;;4981516;28;20897;-70
2022/03/22 04:11:14;;;;;;;39.23;32.10;;;7.40;99.90;;;;;;4984636;28;20498;-70
2022/03/22 04:13:41;;;;;;;38.90;30.97;;;7.40;99.90;;;;;;4982083;28;20493;-69
2022/03/22 04:16:08;;;;;;;48.27;31.07;;;7.30;99.90;;;;;;4993112;28;20880;-70
2022/03/22 04:18:35;;;;;;;37.57;29.50;;;7.30;99.90;;;;;;4985000;28;21548;-70
2022/03/22 04:21:04;;;;;;;34.40;30.50;;;7.30;99.90;;;;;;4985393;28;21244;-70
2022/03/22 04:23:32;;;;;;;39.33;31.53;;;7.40;99.90;;;;;;4984998;28;20501;-70
2022/03/22 04:25:59;;;;;;;33.87;30.27;;;7.40;99.90;;;;;;4981516;28;20504;-69
2022/03/22 04:34:03;;;;;;;49.50;31.30;;;7.40;99.90;;;;;;4947547;28;20474;-69
2022/03/22 04:36:30;;;;;;;43.10;31.33;;;7.50;99.90;;;;;;4980210;28;20973;-71
2022/03/22 04:38:59;;;;;;;33.77;30.13;;;7.50;99.90;;;;;;4983037;28;20616;-70
2022/03/22 04:41:25;;;;;;;33.93;29.97;;;7.50;99.90;;;;;;4982536;28;20486;-69
2022/03/22 04:43:52;;;;;;;35.63;31.93;;;7.60;99.90;;;;;;4987736;28;20458;-71
2022/03/22 04:46:20;;;;;;;36.73;30.80;;;7.50;99.90;;;;;;4986620;28;20458;-69
2022/03/22 04:48:47;;;;;;;37.40;29.80;;;7.60;99.90;;;;;;4990365;28;20466;-69
2022/03/22 04:56:46;;;;;;;34.63;29.07;;;7.40;99.90;;;;;;4984580;28;20896;-69
2022/03/22 04:59:14;;;;;;;40.57;28.53;;;7.30;99.90;;;;;;4986109;28;20511;-68
2022/03/22 05:01:42;;;;;;;37.40;30.73;;;7.30;99.90;;;;;;4974505;28;20494;-69
2022/03/22 05:04:09;;;;;;;33.70;29.17;;;7.20;99.90;;;;;;4961396;28;20469;-69
2022/03/22 05:06:37;;;;;;;34.03;30.33;;;7.20;99.90;;;;;;4963969;28;21201;-68
2022/03/22 05:09:06;;;;;;;36.37;31.17;;;7.30;99.90;;;;;;4959315;28;20474;-70
2022/03/22 05:11:33;;;;;;;32.43;28.93;;;7.30;99.90;;;;;;4960790;28;20501;-69
2022/03/22 05:14:00;;;;;;;32.87;29.60;;;7.20;99.90;;;;;;4961120;28;20471;-69
2022/03/22 05:16:29;;;;;;;34.23;30.60;;;7.10;99.90;;;;;;4962619;28;20470;-69
2022/03/22 05:18:57;;;;;;;33.27;29.63;;;7.00;99.90;;;;;;4963305;28;20585;-70
2022/03/22 05:21:25;;;;;;;33.47;29.47;;;7.00;99.90;;;;;;4978323;28;20470;-68
2022/03/22 05:23:52;;;;;;;38.57;31.10;;;7.00;99.90;;;;;;4978989;28;20838;-69
2022/03/22 05:26:21;;;;;;;35.60;30.47;;;6.90;99.90;;;;;;4982264;28;20996;-69
2022/03/22 05:28:47;;;;;;;34.43;30.70;;;6.90;99.90;;;;;;4979905;28;20469;-69
2022/03/22 05:31:15;;;;;;;39.10;30.40;;;6.80;99.90;;;;;;4961891;28;21115;-69
2022/03/22 05:33:56;;;;;;;41.47;30.23;;;6.80;99.90;;;;;;4963455;28;20486;-69
2022/03/22 05:36:24;;;;;;;36.30;31.80;;;6.70;99.90;;;;;;4961291;28;20493;-71
2022/03/22 05:38:52;;;;;;;38.43;32.60;;;6.60;99.90;;;;;;4961602;28;21196;-70
2022/03/22 05:41:20;;;;;;;34.87;31.33;;;6.60;99.90;;;;;;4962183;28;20488;-69
2022/03/22 05:43:47;;;;;;;39.97;32.60;;;6.50;99.90;;;;;;4962611;28;20543;-68
2022/03/22 05:46:17;;;;;;;37.73;30.53;;;6.50;99.90;;;;;;4963215;28;20496;-69
2022/03/22 05:48:44;;;;;;;36.60;31.77;;;6.50;99.90;;;;;;4962808;28;22036;-69
2022/03/22 05:51:11;;;;;;;34.77;31.13;;;6.50;99.90;;;;;;4960233;28;20502;-70
2022/03/22 05:53:38;;;;;;;36.27;32.43;;;6.60;99.90;;;;;;4963525;28;20975;-69
2022/03/22 05:56:05;;;;;;;37.87;33.77;;;6.60;99.90;;;;;;4963239;28;20485;-68
2022/03/22 05:58:34;;;;;;;38.53;32.83;;;6.70;99.90;;;;;;4961884;28;20517;-69
2022/03/22 06:01:01;;;;;;;39.87;30.60;;;6.80;99.90;;;;;;4965932;28;20472;-68
2022/03/22 06:03:28;;;;;;;35.67;32.03;;;6.90;99.90;;;;;;4983931;28;21377;-68
2022/03/22 06:05:55;;;;;;;34.50;29.77;;;7.00;99.90;;;;;;4971762;28;20474;-69
2022/03/22 06:08:22;;;;;;;34.53;30.97;;;7.10;99.90;;;;;;4962069;28;21404;-70
2022/03/22 06:10:49;;;;;;;45.30;32.57;;;7.10;99.90;;;;;;4959697;28;20510;-69
2022/03/22 06:13:16;;;;;;;35.13;30.77;;;7.20;99.90;;;;;;4961638;28;20556;-70
2022/03/22 06:15:44;;;;;;;40.57;30.73;;;7.20;99.90;;;;;;4961156;28;20560;-68
2022/03/22 06:18:11;;;;;;;36.07;31.70;;;7.30;99.90;;;;;;4961427;28;20584;-68
2022/03/22 06:20:41;;;;;;;34.87;30.30;;;7.30;99.90;;;;;;4962995;28;20474;-68
2022/03/22 06:23:10;;;;;;;38.60;31.90;;;7.40;99.90;;;;;;4962789;28;20470;-69
2022/03/22 06:25:37;;;;;;;36.03;30.70;;;7.50;99.90;;;;;;4964960;28;21201;-68
2022/03/22 06:28:06;;;;;;;39.37;30.13;;;7.60;99.90;;;;;;4979702;28;20467;-70
2022/03/22 06:30:34;;;;;;;34.70;29.90;;;7.70;99.90;;;;;;4959161;28;20576;-70
2022/03/22 06:33:09;;;;;;;35.30;31.57;;;7.70;99.90;;;;;;4960230;28;20502;-69
2022/03/22 06:35:36;;;;;;;35.00;30.07;;;7.80;99.90;;;;;;4961347;28;21814;-68
2022/03/22 06:38:04;;;;;;;37.47;30.77;;;8.00;99.90;;;;;;4962182;28;20470;-69
2022/03/22 06:40:34;;;;;;;35.20;31.47;;;8.00;99.90;;;;;;4961678;28;20494;-68
2022/03/22 06:43:02;;;;;;;38.27;31.10;;;8.10;99.90;;;;;;4979661;28;20474;-68
2022/03/22 06:45:29;;;;;;;35.93;32.13;;;8.10;99.90;;;;;;4982010;28;20568;-68
2022/03/22 06:47:56;;;;;;;36.30;32.17;;;8.20;99.90;;;;;;4967543;28;20466;-68
2022/03/22 06:50:25;;;;;;;41.50;32.30;;;8.30;99.90;;;;;;4955561;28;20980;-69
2022/03/22 06:52:52;;;;;;;35.47;31.27;;;8.30;99.90;;;;;;4962364;28;20466;-68
2022/03/22 06:55:22;;;;;;;37.67;32.47;;;8.30;99.90;;;;;;4964709;28;20462;-68
2022/03/22 06:57:49;;;;;;;41.07;31.33;;;8.40;99.90;;;;;;4964929;28;20474;-69
2022/03/22 07:00:19;;;;;;;40.60;31.90;;;8.50;99.90;;;;;;4962683;28;20471;-68
2022/03/22 07:02:47;;;;;;;39.80;32.17;;;8.60;99.90;;;;;;4963168;28;20856;-70
2022/03/22 07:05:13;;;;;;;34.47;30.20;;;8.70;99.90;;;;;;4962891;28;20476;-69
2022/03/22 07:07:42;;;;;;;36.27;32.73;;;8.90;99.90;;;;;;4962265;28;21178;-69
2022/03/22 07:10:11;;;;;;;36.27;32.30;;;9.00;99.90;;;;;;4959587;28;20870;-68
2022/03/22 07:12:54;;;;;;;42.83;31.60;;;9.10;99.90;;;;;;4960336;28;20502;-68
2022/03/22 07:15:23;;;;;;;34.80;30.77;;;9.20;99.90;;;;;;4958836;28;20463;-69
2022/03/22 07:17:52;;;;;;;38.60;31.47;;;9.20;99.90;;;;;;4961893;28;20497;-69
2022/03/22 07:20:19;;;;;;;41.67;30.70;;;9.30;99.90;;;;;;4960282;28;20470;-69
2022/03/22 07:22:48;;;;;;;34.90;30.73;;;9.40;99.90;;;;;;4962103;28;20470;-69
2022/03/22 07:25:15;;;;;;;34.63;31.00;;;9.40;99.90;;;;;;4963981;28;20777;-68
2022/03/22 07:27:42;;;;;;;38.50;32.17;;;9.50;99.90;;;;;;4961376;28;21175;-70
2022/03/22 07:30:11;;;;;;;37.43;31.47;;;9.60;99.90;;;;;;4963466;28;20470;-69
2022/03/22 07:32:38;;;;;;;39.93;31.20;;;9.60;99.90;;;;;;4980817;28;20587;-68
2022/03/22 07:35:07;;;;;;;36.37;31.80;;;9.70;99.90;;;;;;4982942;28;21035;-68
2022/03/22 07:37:34;;;;;;;38.50;31.17;;;9.80;99.90;;;;;;4966868;28;20970;-68
2022/03/22 07:40:03;;;;;;;38.13;30.20;;;10.00;99.90;;;;;;4962563;28;20977;-69
2022/03/22 07:42:31;;;;;;;36.80;32.03;;;10.20;99.90;;;;;;4963256;28;20452;-69
2022/03/22 07:45:00;;;;;;;36.13;32.47;;;10.30;99.90;;;;;;4962250;28;20577;-69
2022/03/22 07:47:28;;;;;;;43.70;31.53;;;10.50;99.90;;;;;;4962568;28;20608;-69
2022/03/22 07:55:26;;;;;;;37.17;33.20;;;10.60;99.90;;;;;;4962642;28;20564;-68
2022/03/22 07:57:53;;;;;;;38.33;30.73;;;10.70;99.90;;;;;;4961999;28;20467;-69
2022/03/22 08:00:20;;;;;;;41.17;32.47;;;11.00;99.90;;;;;;4960719;28;20793;-70
2022/03/22 08:02:55;;;;;;;35.10;30.63;;;11.10;99.90;;;;;;4961032;28;20470;-70
2022/03/22 08:05:22;;;;;;;39.20;32.13;;;11.30;99.90;;;;;;4959387;28;21021;-70
2022/03/22 08:07:49;;;;;;;34.23;30.77;;;11.30;99.90;;;;;;4960649;28;20471;-69
2022/03/22 08:10:15;;;;;;;37.13;32.27;;;11.30;99.90;;;;;;4962048;28;20478;-70
2022/03/22 08:12:44;;;;;;;41.33;30.83;;;11.40;99.90;;;;;;4963565;28;20912;-69
2022/03/22 08:15:12;;;;;;;36.70;31.27;;;11.50;99.90;;;;;;4962508;28;22320;-69
2022/03/22 08:17:39;;;;;;;35.00;31.30;;;11.70;99.90;;;;;;4963097;28;20474;-69
2022/03/22 08:20:08;;;;;;;35.17;31.20;;;11.80;99.90;;;;;;4963750;28;20473;-70
2022/03/22 08:22:46;;;;;;;39.50;32.60;;;11.90;99.90;;;;;;4963229;28;20469;-68
2022/03/22 08:25:13;;;;;;;49.10;31.57;;;12.00;99.90;;;;;;4962885;28;20458;-69
2022/03/22 08:27:40;;;;;;;39.53;32.37;;;12.00;99.90;;;;;;4962986;28;20473;-68
2022/03/22 08:30:10;;;;;;;47.93;33.03;;;12.20;99.90;;;;;;4962507;28;20472;-68
2022/03/22 08:32:36;;;;;;;34.53;30.83;;;12.40;99.90;;;;;;4963683;28;21197;-68
2022/03/22 08:35:04;;;;;;;37.07;31.27;;;12.50;99.90;;;;;;4983725;28;20493;-69
2022/03/22 08:37:31;;;;;;;36.93;31.60;;;12.60;99.90;;;;;;4977753;28;20483;-68
2022/03/22 08:39:58;;;;;;;39.87;31.70;;;12.90;99.90;;;;;;4960950;28;20485;-69
2022/03/22 08:42:26;;;;;;;48.70;32.90;;;13.10;99.90;;;;;;4962988;28;20467;-69
2022/03/22 08:44:52;;;;;;;44.73;33.00;;;13.10;99.90;;;;;;4962091;28;20470;-68
2022/03/22 08:47:22;;;;;;;37.83;31.87;;;13.10;99.90;;;;;;4962879;28;21039;-69
2022/03/22 08:49:50;;;;;;;41.37;32.40;;;13.20;99.90;;;;;;4961582;28;20520;-68
2022/03/22 08:52:17;;;;;;;36.27;32.40;;;13.20;99.90;;;;;;4960611;28;20491;-68
2022/03/22 08:54:45;;;;;;;36.63;32.17;;;13.30;99.90;;;;;;4961636;28;21026;-69
2022/03/22 08:57:11;;;;;;;36.10;30.50;;;13.40;99.90;;;;;;4961613;28;20592;-69
2022/03/22 08:59:39;;;;;;;35.60;32.10;;;13.70;99.90;;;;;;4963412;28;20546;-68
2022/03/22 09:02:09;;;;;;;34.77;31.27;;;13.70;99.90;;;;;;4962938;28;20458;-68
2022/03/22 09:07:22;;;;;;;38.50;33.17;;;13.90;99.90;;;;;;4963330;28;20466;-68
2022/03/22 09:09:49;;;;;;;38.33;31.80;;;14.00;99.90;;;;;;4962724;28;21044;-68
2022/03/22 09:12:19;;;;;;;45.53;32.00;;;14.30;99.90;;;;;;4970395;28;20502;-68
2022/03/22 09:14:46;;;;;;;38.73;33.37;;;14.40;99.20;;;;;;4979109;28;20502;-69
2022/03/22 09:17:14;;;;;;;39.50;32.40;;;14.40;98.70;;;;;;4971758;28;20557;-68
2022/03/22 09:19:43;;;;;;;35.63;31.80;;;14.40;98.80;;;;;;4961649;28;20471;-69
2022/03/22 09:22:10;;;;;;;36.60;32.00;;;14.50;98.90;;;;;;4958107;28;20479;-68
2022/03/22 09:24:37;;;;;;;41.90;32.30;;;14.70;99.40;;;;;;4955150;28;20600;-68
2022/03/22 09:27:05;;;;;;;39.63;31.10;;;15.00;98.40;;;;;;4960339;28;20474;-69
2022/03/22 09:29:32;;;;;;;33.93;30.30;;;15.30;98.20;;;;;;4975509;28;20459;-69
2022/03/22 09:31:58;;;;;;;35.87;32.10;;;15.50;97.80;;;;;;4974640;28;21119;-67
2022/03/22 09:34:25;;;;;;;36.70;32.90;;;15.50;97.40;;;;;;4980132;28;20514;-68
2022/03/22 09:36:53;;;;;;;54.93;32.20;;;15.60;97.80;;;;;;4982286;28;20474;-67
2022/03/22 09:39:20;;;;;;;36.70;32.67;;;15.90;98.00;;;;;;4967747;28;20476;-69
2022/03/22 09:41:49;;;;;;;36.10;32.60;;;16.20;97.20;;;;;;4960428;28;21496;-69
2022/03/22 09:44:19;;;;;;;45.67;32.20;;;16.80;96.80;;;;;;4961759;28;20490;-68
2022/03/22 09:46:48;;;;;;;35.97;32.27;;;17.50;95.00;;;;;;4958179;28;20996;-69
2022/03/22 09:49:16;;;;;;;37.23;31.03;;;18.40;93.20;;;;;;4959929;28;20556;-68
2022/03/22 09:51:47;;;;;;;34.17;30.90;;;19.30;91.10;;;;;;4960123;28;21062;-69
2022/03/22 09:54:19;;;;;;;36.17;30.07;;;19.60;89.40;;;;;;4960839;28;20941;-69
2022/03/22 09:56:47;;;;;;;33.40;30.20;;;20.00;87.30;;;;;;4959604;28;21072;-69
2022/03/22 09:59:17;;;;;;;31.80;28.67;;;20.60;80.50;;;;;;4960884;28;20459;-69
2022/03/22 10:01:45;;;;;;;34.17;30.87;;;21.00;80.00;;;;;;4960222;28;20462;-70
2022/03/22 10:04:13;;;;;;;33.10;27.97;;;21.60;73.40;;;;;;4961543;28;20578;-68
2022/03/22 10:06:51;;;;;;;33.53;30.10;;;22.00;69.10;;;;;;4961118;28;20465;-68
2022/03/22 10:09:29;;;;;;;34.80;30.70;;;21.90;67.70;;;;;;4960129;28;20474;-70
2022/03/22 10:11:57;;;;;;;33.33;30.17;;;21.80;65.90;;;;;;4959243;28;20486;-68
2022/03/22 10:14:34;;;;;;;34.90;31.00;;;22.20;64.20;;;;;;4961285;28;21014;-68
2022/03/22 10:17:10;;;;;;;31.87;29.03;;;22.70;60.30;;;;;;4959615;28;20471;-70
2022/03/22 10:19:43;;;;;;;31.30;28.50;;;23.10;61.50;;;;;;4960149;28;20852;-69
2022/03/22 10:22:11;;;;;;;31.40;28.07;;;23.50;58.30;;;;;;4959987;28;20996;-68
2022/03/22 10:24:47;;;;;;;33.73;30.30;;;23.50;58.50;;;;;;4959791;28;20477;-69
2022/03/22 10:27:25;;;;;;;34.63;29.60;;;22.70;55.50;;;;;;4959226;28;20470;-70
2022/03/22 10:29:53;;;;;;;32.70;29.70;;;22.20;58.60;;;;;;4959927;28;20834;-69
2022/03/22 10:32:30;;;;;;;32.87;29.33;;;22.30;58.00;;;;;;4959911;28;20486;-70
2022/03/22 10:34:57;;;;;;;32.57;29.57;;;22.50;56.10;;;;;;4959108;28;20478;-70
2022/03/22 10:37:27;;;;;;;32.57;29.47;;;22.10;55.30;;;;;;4956983;28;20478;-69
2022/03/22 10:39:56;;;;;;;34.13;30.70;;;22.40;56.60;;;;;;4960357;28;20458;-69
2022/03/22 10:42:24;;;;;;;34.40;30.77;;;22.70;55.80;;;;;;4962455;28;20462;-69
2022/03/22 10:44:51;;;;;;;33.40;30.20;;;23.40;55.10;;;;;;4980101;28;20545;-69
2022/03/22 10:47:27;;;;;;;33.50;29.47;;;23.90;55.30;;;;;;4980694;28;20996;-69
2022/03/22 10:50:02;;;;;;;35.73;31.27;;;24.50;53.50;;;;;;4985390;28;21187;-70
2022/03/22 10:52:30;;;;;;;35.27;31.90;;;25.50;52.40;;;;;;4963358;28;20493;-69
2022/03/22 10:54:59;;;;;;;32.70;29.03;;;26.00;50.50;;;;;;4960407;28;20474;-69
2022/03/22 10:57:32;;;;;;;32.37;29.30;;;25.90;48.90;;;;;;4960074;28;21432;-69
2022/03/22 11:00:02;;;;;;;32.90;29.60;;;26.20;48.70;;;;;;4958831;28;20592;-69
2022/03/22 11:02:33;;;;;;;38.97;31.40;;;25.40;47.50;;;;;;4960363;28;20793;-70
2022/03/22 11:05:03;;;;;;;33.47;30.23;;;25.70;46.60;;;;;;4959862;28;21044;-69
2022/03/22 11:07:33;;;;;;;34.57;29.40;;;25.00;47.10;;;;;;4960172;28;20484;-70
2022/03/22 11:10:02;;;;;;;34.23;30.87;;;24.70;45.30;;;;;;4959417;28;20474;-68
2022/03/22 11:12:29;;;;;;;32.43;29.00;;;25.30;44.30;;;;;;4959524;28;21063;-69
2022/03/22 11:14:57;;;;;;;33.20;29.80;;;25.30;44.00;;;;;;4960466;28;20462;-69
2022/03/22 11:17:25;;;;;;;32.27;29.27;;;25.50;43.90;;;;;;4959717;28;20470;-69
2022/03/22 11:19:52;;;;;;;33.03;30.20;;;25.50;43.10;;;;;;4959756;28;20478;-69
2022/03/22 11:22:19;;;;;;;32.90;30.10;;;25.60;41.80;;;;;;4977083;28;20486;-69
2022/03/22 11:24:47;;;;;;;33.40;30.13;;;25.50;41.90;;;;;;4980917;28;20467;-69
2022/03/22 11:27:16;;;;;;;32.20;28.97;;;25.60;43.30;;;;;;4957737;28;20540;-69
2022/03/22 11:29:45;;;;;;;33.50;30.00;;;25.80;43.40;;;;;;4956795;28;20516;-69
2022/03/22 11:34:58;;;;;;;33.97;30.60;;;25.80;42.00;;;;;;4960100;28;20485;-69
2022/03/22 11:37:31;;;;;;;37.40;31.90;;;26.00;42.30;;;;;;4959184;28;20465;-69
2022/03/22 11:42:54;;;;;;;33.20;30.10;;;26.20;40.00;;;;;;4963219;28;20509;-70
2022/03/22 11:45:21;;;;;;;34.77;31.40;;;26.20;39.80;;;;;;4964333;28;20474;-70
2022/03/22 11:47:49;;;;;;;31.37;28.73;;;26.60;39.70;;;;;;4962430;28;20458;-70
2022/03/22 11:50:20;;;;;;;32.73;29.70;;;26.70;39.00;;;;;;4962981;28;20474;-70
2022/03/22 11:52:50;;;;;;;32.77;29.50;;;26.50;38.80;;;;;;4963964;28;20505;-70
2022/03/22 11:55:18;;;;;;;30.97;28.43;;;26.80;37.40;;;;;;4961446;28;20609;-71
2022/03/22 11:57:49;;;;;;;31.90;28.87;;;27.10;38.20;;;;;;4962798;28;20476;-71
2022/03/22 12:00:19;;;;;;;34.37;31.07;;;27.60;37.40;;;;;;4963080;28;21098;-69
2022/03/22 12:02:51;;;;;;;30.70;27.90;;;27.60;35.50;;;;;;4963822;28;20944;-70
2022/03/22 12:05:19;;;;;;;31.93;28.10;;;27.50;36.60;;;;;;4960596;28;21048;-70
2022/03/22 12:07:46;;;;;;;28.50;25.77;;;27.90;35.70;;;;;;4960624;28;20475;-70
2022/03/22 12:10:15;;;;;;;29.63;26.90;;;28.20;35.40;;;;;;4961630;28;20515;-70
2022/03/22 12:12:49;;;;;;;31.10;26.70;;;28.40;35.50;;;;;;4956591;28;20871;-70
2022/03/22 12:15:19;;;;;;;29.77;26.90;;;28.00;33.40;;;;;;4961527;28;20738;-69
2022/03/22 12:17:46;;;;;;;30.00;27.00;;;27.90;32.50;;;;;;4961923;28;20479;-71
2022/03/22 12:20:15;;;;;;;30.33;27.77;;;27.80;33.60;;;;;;4960651;28;20535;-71
2022/03/22 12:22:43;;;;;;;29.80;26.90;;;28.10;34.10;;;;;;4961731;28;20466;-70
2022/03/22 12:25:11;;;;;;;28.30;25.40;;;28.50;32.90;;;;;;4962016;28;20455;-71
2022/03/22 12:27:38;;;;;;;29.37;26.87;;;28.70;33.80;;;;;;4960667;28;20849;-70
2022/03/22 12:30:07;;;;;;;26.80;24.40;;;28.50;31.40;;;;;;4961313;28;20478;-70
2022/03/22 12:32:35;;;;;;;26.27;23.97;;;28.50;30.00;;;;;;4960990;28;20573;-70
2022/03/22 12:35:02;;;;;;;26.40;24.23;;;28.70;31.70;;;;;;4961061;28;20485;-70
2022/03/22 12:37:30;;;;;;;26.10;23.90;;;28.70;30.00;;;;;;4960262;28;20863;-71
2022/03/22 12:39:57;;;;;;;25.73;23.20;;;29.20;31.80;;;;;;4961732;28;20549;-70
2022/03/22 12:42:24;;;;;;;24.70;22.33;;;29.70;30.00;;;;;;4960964;28;20496;-71
2022/03/22 12:44:51;;;;;;;23.33;21.73;;;29.70;30.80;;;;;;4962299;28;21281;-70
2022/03/22 12:47:20;;;;;;;24.10;21.87;;;28.90;28.80;;;;;;4961166;28;20489;-70
2022/03/22 12:49:49;;;;;;;24.63;22.60;;;27.60;29.70;;;;;;4961225;28;20613;-71
2022/03/22 12:52:16;;;;;;;27.93;21.97;;;28.50;30.10;;;;;;4960103;28;21341;-71
2022/03/22 12:54:44;;;;;;;26.27;23.60;;;28.70;28.90;;;;;;4961363;28;20470;-70
2022/03/22 12:57:13;;;;;;;24.30;22.30;;;29.10;27.90;;;;;;4962117;28;22420;-70
2022/03/22 12:59:40;;;;;;;23.77;21.83;;;29.10;28.60;;;;;;4960461;28;20957;-71
2022/03/22 13:02:08;;;;;;;24.97;22.80;;;28.40;28.60;;;;;;4961555;28;21295;-70
2022/03/22 13:04:38;;;;;;;24.77;22.83;;;27.80;29.10;;;;;;4961295;28;20458;-71
2022/03/22 13:07:08;;;;;;;23.87;21.87;;;27.70;29.20;;;;;;4961182;28;20467;-70
2022/03/22 13:12:21;;;;;;;24.20;22.10;;;27.90;29.80;;;;;;4960139;28;21127;-70
2022/03/22 13:15:04;;;;;;;23.67;21.63;;;28.20;29.40;;;;;;4959915;28;20967;-71
2022/03/22 13:17:33;;;;;;;26.27;23.97;;;28.40;28.00;;;;;;4976803;28;20472;-70
2022/03/22 13:20:01;;;;;;;25.27;23.07;;;27.90;27.50;;;;;;4981680;28;20477;-71
2022/03/22 13:22:29;;;;;;;25.77;23.40;;;26.60;27.90;;;;;;4979360;28;20868;-70